sensor_id;sensor_type;location;lat;lon;timestamp;pressure;altitude;pressure_sealevel;temperature;humidity
73151;BME280;61354;50.758;6.106;2023-03-11T00:01:06;98303.25;;;-0.14;93.51
73151;BME280;61354;50.758;6.106;2023-03-11T00:03:31;98308.38;;;-0.13;93.14
73151;BME280;61354;50.758;6.106;2023-03-11T00:06:00;98310.94;;;-0.16;91.14
73151;BME280;61354;50.758;6.106;2023-03-11T00:08:26;98319.94;;;-0.16;92.64
73151;BME280;61354;50.758;6.106;2023-03-11T00:10:57;98323.06;;;-0.22;91.86
73151;BME280;61354;50.758;6.106;2023-03-11T00:13:25;98334.00;;;-0.22;91.39
73151;BME280;61354;50.758;6.106;2023-03-11T00:15:52;98335.31;;;-0.20;93.51
73151;BME280;61354;50.758;6.106;2023-03-11T00:18:22;98331.78;;;-0.20;93.64
73151;BME280;61354;50.758;6.106;2023-03-11T00:20:52;98332.78;;;-0.30;93.42
73151;BME280;61354;50.758;6.106;2023-03-11T00:23:18;98335.41;;;-0.25;91.14
73151;BME280;61354;50.758;6.106;2023-03-11T00:25:44;98342.78;;;-0.26;91.78
73151;BME280;61354;50.758;6.106;2023-03-11T00:28:11;98338.44;;;-0.27;90.10
73151;BME280;61354;50.758;6.106;2023-03-11T00:30:38;98332.41;;;-0.37;91.44
73151;BME280;61354;50.758;6.106;2023-03-11T00:33:05;98340.00;;;-0.48;92.69
73151;BME280;61354;50.758;6.106;2023-03-11T00:35:33;98339.47;;;-0.50;90.74
73151;BME280;61354;50.758;6.106;2023-03-11T00:38:03;98352.41;;;-0.42;91.86
73151;BME280;61354;50.758;6.106;2023-03-11T00:40:31;98349.59;;;-0.51;91.91
73151;BME280;61354;50.758;6.106;2023-03-11T00:42:58;98343.75;;;-0.58;91.96
73151;BME280;61354;50.758;6.106;2023-03-11T00:45:24;98353.22;;;-0.55;93.56
73151;BME280;61354;50.758;6.106;2023-03-11T00:47:51;98349.59;;;-0.64;93.99
73151;BME280;61354;50.758;6.106;2023-03-11T00:50:29;98357.69;;;-0.59;92.12
73151;BME280;61354;50.758;6.106;2023-03-11T00:52:55;98355.97;;;-0.69;92.24
73151;BME280;61354;50.758;6.106;2023-03-11T00:55:23;98365.16;;;-0.65;91.93
73151;BME280;61354;50.758;6.106;2023-03-11T00:57:54;98363.84;;;-0.67;92.90
73151;BME280;61354;50.758;6.106;2023-03-11T01:00:22;98371.00;;;-0.71;91.79
73151;BME280;61354;50.758;6.106;2023-03-11T01:02:48;98368.59;;;-0.73;93.35
73151;BME280;61354;50.758;6.106;2023-03-11T01:05:14;98370.50;;;-0.73;92.40
73151;BME280;61354;50.758;6.106;2023-03-11T01:07:40;98374.44;;;-0.80;92.84
73151;BME280;61354;50.758;6.106;2023-03-11T01:10:07;98382.41;;;-0.83;93.60
73151;BME280;61354;50.758;6.106;2023-03-11T01:12:33;98387.47;;;-0.77;92.72
73151;BME280;61354;50.758;6.106;2023-03-11T01:14:58;98378.47;;;-0.77;93.29
73151;BME280;61354;50.758;6.106;2023-03-11T01:17:24;98388.16;;;-0.85;94.12
73151;BME280;61354;50.758;6.106;2023-03-11T01:19:50;98384.31;;;-0.84;94.37
73151;BME280;61354;50.758;6.106;2023-03-11T01:22:15;98377.25;;;-0.85;94.77
73151;BME280;61354;50.758;6.106;2023-03-11T01:24:41;98383.94;;;-0.91;94.40
73151;BME280;61354;50.758;6.106;2023-03-11T01:27:07;98385.13;;;-0.97;95.35
73151;BME280;61354;50.758;6.106;2023-03-11T01:29:32;98389.78;;;-0.84;96.56
73151;BME280;61354;50.758;6.106;2023-03-11T01:31:58;98390.78;;;-0.93;95.54
73151;BME280;61354;50.758;6.106;2023-03-11T01:34:24;98381.50;;;-0.92;96.83
73151;BME280;61354;50.758;6.106;2023-03-11T01:36:50;98390.25;;;-0.95;97.64
73151;BME280;61354;50.758;6.106;2023-03-11T01:39:15;98396.03;;;-0.97;97.41
73151;BME280;61354;50.758;6.106;2023-03-11T01:41:41;98399.66;;;-1.02;96.92
73151;BME280;61354;50.758;6.106;2023-03-11T01:44:09;98403.78;;;-1.04;98.13
73151;BME280;61354;50.758;6.106;2023-03-11T01:47:23;98405.22;;;-0.93;99.29
73151;BME280;61354;50.758;6.106;2023-03-11T01:49:24;98399.84;;;-0.98;99.05
73151;BME280;61354;50.758;6.106;2023-03-11T01:51:53;98410.34;;;-1.05;100.00
73151;BME280;61354;50.758;6.106;2023-03-11T01:56:48;98404.06;;;-1.06;100.00
73151;BME280;61354;50.758;6.106;2023-03-11T01:59:18;98398.13;;;-1.08;100.00
73151;BME280;61354;50.758;6.106;2023-03-11T02:01:52;98396.09;;;-1.16;100.00
73151;BME280;61354;50.758;6.106;2023-03-11T02:04:21;98392.97;;;-1.09;99.50
73151;BME280;61354;50.758;6.106;2023-03-11T02:06:46;98385.59;;;-1.09;98.28
73151;BME280;61354;50.758;6.106;2023-03-11T02:09:12;98387.94;;;-1.02;99.42
73151;BME280;61354;50.758;6.106;2023-03-11T02:11:37;98388.31;;;-1.09;98.19
73151;BME280;61354;50.758;6.106;2023-03-11T02:14:05;98386.94;;;-1.06;97.79
73151;BME280;61354;50.758;6.106;2023-03-11T02:16:32;98390.16;;;-1.04;98.44
73151;BME280;61354;50.758;6.106;2023-03-11T02:19:01;98403.50;;;-1.03;99.12
73151;BME280;61354;50.758;6.106;2023-03-11T02:21:31;98406.69;;;-1.14;99.42
73151;BME280;61354;50.758;6.106;2023-03-11T02:24:14;98413.59;;;-1.03;99.04
73151;BME280;61354;50.758;6.106;2023-03-11T02:29:25;98399.22;;;-1.09;97.65
73151;BME280;61354;50.758;6.106;2023-03-11T02:31:52;98407.41;;;-1.09;97.72
73151;BME280;61354;50.758;6.106;2023-03-11T02:34:24;98407.50;;;-1.14;98.40
73151;BME280;61354;50.758;6.106;2023-03-11T02:36:50;98400.03;;;-1.08;97.60
73151;BME280;61354;50.758;6.106;2023-03-11T02:39:16;98403.28;;;-1.06;97.44
73151;BME280;61354;50.758;6.106;2023-03-11T02:41:52;98405.56;;;-1.13;97.76
73151;BME280;61354;50.758;6.106;2023-03-11T02:44:18;98408.50;;;-1.10;97.55
73151;BME280;61354;50.758;6.106;2023-03-11T02:46:44;98414.06;;;-1.15;97.82
73151;BME280;61354;50.758;6.106;2023-03-11T02:49:10;98413.16;;;-1.10;97.52
73151;BME280;61354;50.758;6.106;2023-03-11T02:51:36;98406.69;;;-1.14;97.82
73151;BME280;61354;50.758;6.106;2023-03-11T02:54:04;98405.75;;;-1.23;97.33
73151;BME280;61354;50.758;6.106;2023-03-11T02:56:30;98401.66;;;-1.07;97.57
73151;BME280;61354;50.758;6.106;2023-03-11T02:58:55;98406.09;;;-1.11;98.06
73151;BME280;61354;50.758;6.106;2023-03-11T03:01:21;98391.84;;;-1.08;99.16
73151;BME280;61354;50.758;6.106;2023-03-11T03:03:47;98405.34;;;-1.17;99.37
73151;BME280;61354;50.758;6.106;2023-03-11T03:06:13;98402.25;;;-1.10;100.00
73151;BME280;61354;50.758;6.106;2023-03-11T03:08:39;98405.47;;;-1.08;100.00
73151;BME280;61354;50.758;6.106;2023-03-11T03:11:04;98406.03;;;-1.25;100.00
73151;BME280;61354;50.758;6.106;2023-03-11T03:13:30;98410.75;;;-1.12;100.00
73151;BME280;61354;50.758;6.106;2023-03-11T03:15:57;98411.59;;;-1.16;100.00
73151;BME280;61354;50.758;6.106;2023-03-11T03:18:23;98416.03;;;-1.20;100.00
73151;BME280;61354;50.758;6.106;2023-03-11T03:20:49;98412.13;;;-1.14;100.00
73151;BME280;61354;50.758;6.106;2023-03-11T03:23:15;98423.25;;;-1.11;100.00
73151;BME280;61354;50.758;6.106;2023-03-11T03:25:42;98426.25;;;-1.12;100.00
73151;BME280;61354;50.758;6.106;2023-03-11T03:28:08;98426.44;;;-1.22;100.00
73151;BME280;61354;50.758;6.106;2023-03-11T03:30:34;98423.81;;;-1.28;100.00
73151;BME280;61354;50.758;6.106;2023-03-11T03:33:00;98422.09;;;-1.23;100.00
73151;BME280;61354;50.758;6.106;2023-03-11T03:35:25;98432.06;;;-1.33;100.00
73151;BME280;61354;50.758;6.106;2023-03-11T03:37:51;98427.03;;;-1.26;100.00
73151;BME280;61354;50.758;6.106;2023-03-11T03:40:17;98440.16;;;-1.28;100.00
73151;BME280;61354;50.758;6.106;2023-03-11T03:42:43;98438.50;;;-1.29;100.00
73151;BME280;61354;50.758;6.106;2023-03-11T03:45:09;98432.19;;;-1.24;100.00
73151;BME280;61354;50.758;6.106;2023-03-11T03:47:35;98449.25;;;-1.18;100.00
73151;BME280;61354;50.758;6.106;2023-03-11T03:50:03;98444.97;;;-1.25;100.00
73151;BME280;61354;50.758;6.106;2023-03-11T03:52:29;98446.00;;;-1.20;100.00
73151;BME280;61354;50.758;6.106;2023-03-11T03:54:54;98449.41;;;-1.29;100.00
73151;BME280;61354;50.758;6.106;2023-03-11T03:57:20;98444.38;;;-1.21;100.00
73151;BME280;61354;50.758;6.106;2023-03-11T03:59:45;98438.94;;;-1.21;100.00
73151;BME280;61354;50.758;6.106;2023-03-11T04:02:11;98443.38;;;-1.26;100.00
73151;BME280;61354;50.758;6.106;2023-03-11T04:04:37;98432.47;;;-1.26;100.00
73151;BME280;61354;50.758;6.106;2023-03-11T04:07:04;98438.03;;;-1.17;100.00
73151;BME280;61354;50.758;6.106;2023-03-11T04:09:30;98446.75;;;-1.15;100.00
73151;BME280;61354;50.758;6.106;2023-03-11T04:11:56;98435.84;;;-1.15;100.00
73151;BME280;61354;50.758;6.106;2023-03-11T04:14:22;98435.53;;;-1.13;100.00
73151;BME280;61354;50.758;6.106;2023-03-11T04:16:47;98441.09;;;-1.37;100.00
73151;BME280;61354;50.758;6.106;2023-03-11T04:19:13;98442.25;;;-1.25;100.00
73151;BME280;61354;50.758;6.106;2023-03-11T04:21:38;98444.59;;;-1.18;100.00
73151;BME280;61354;50.758;6.106;2023-03-11T04:24:04;98446.44;;;-1.13;100.00
73151;BME280;61354;50.758;6.106;2023-03-11T04:26:30;98447.69;;;-1.25;100.00
73151;BME280;61354;50.758;6.106;2023-03-11T04:28:56;98446.63;;;-1.23;100.00
73151;BME280;61354;50.758;6.106;2023-03-11T04:31:21;98452.22;;;-1.34;100.00
73151;BME280;61354;50.758;6.106;2023-03-11T04:33:47;98453.78;;;-1.46;100.00
73151;BME280;61354;50.758;6.106;2023-03-11T04:36:13;98456.63;;;-1.38;100.00
73151;BME280;61354;50.758;6.106;2023-03-11T04:38:38;98455.88;;;-1.25;100.00
73151;BME280;61354;50.758;6.106;2023-03-11T04:41:05;98461.13;;;-1.28;100.00
73151;BME280;61354;50.758;6.106;2023-03-11T04:43:32;98454.03;;;-1.29;100.00
73151;BME280;61354;50.758;6.106;2023-03-11T04:45:57;98456.50;;;-1.28;100.00
73151;BME280;61354;50.758;6.106;2023-03-11T04:48:23;98453.69;;;-1.22;100.00
73151;BME280;61354;50.758;6.106;2023-03-11T04:50:51;98452.28;;;-1.20;100.00
73151;BME280;61354;50.758;6.106;2023-03-11T04:53:17;98461.31;;;-1.25;100.00
73151;BME280;61354;50.758;6.106;2023-03-11T04:55:42;98463.41;;;-1.35;100.00
73151;BME280;61354;50.758;6.106;2023-03-11T04:58:08;98467.38;;;-1.28;100.00
73151;BME280;61354;50.758;6.106;2023-03-11T05:00:33;98472.59;;;-1.31;100.00
73151;BME280;61354;50.758;6.106;2023-03-11T05:02:59;98468.47;;;-1.29;100.00
73151;BME280;61354;50.758;6.106;2023-03-11T05:05:25;98471.19;;;-1.29;100.00
73151;BME280;61354;50.758;6.106;2023-03-11T05:07:50;98470.19;;;-1.33;100.00
73151;BME280;61354;50.758;6.106;2023-03-11T05:10:16;98481.38;;;-1.34;100.00
73151;BME280;61354;50.758;6.106;2023-03-11T05:12:47;98482.09;;;-1.29;100.00
73151;BME280;61354;50.758;6.106;2023-03-11T05:15:13;98486.53;;;-1.33;100.00
73151;BME280;61354;50.758;6.106;2023-03-11T05:17:38;98489.84;;;-1.36;100.00
73151;BME280;61354;50.758;6.106;2023-03-11T05:20:04;98492.13;;;-1.43;100.00
73151;BME280;61354;50.758;6.106;2023-03-11T05:22:32;98494.19;;;-1.35;100.00
73151;BME280;61354;50.758;6.106;2023-03-11T05:24:57;98498.75;;;-1.49;100.00
73151;BME280;61354;50.758;6.106;2023-03-11T05:27:23;98491.66;;;-1.50;100.00
73151;BME280;61354;50.758;6.106;2023-03-11T05:29:49;98499.41;;;-1.38;100.00
73151;BME280;61354;50.758;6.106;2023-03-11T05:32:14;98495.56;;;-1.37;100.00
73151;BME280;61354;50.758;6.106;2023-03-11T05:34:40;98499.56;;;-1.48;100.00
73151;BME280;61354;50.758;6.106;2023-03-11T05:37:06;98501.19;;;-1.47;100.00
73151;BME280;61354;50.758;6.106;2023-03-11T05:39:32;98505.16;;;-1.40;100.00
73151;BME280;61354;50.758;6.106;2023-03-11T05:41:58;98504.03;;;-1.39;100.00
73151;BME280;61354;50.758;6.106;2023-03-11T05:44:24;98507.28;;;-1.56;100.00
73151;BME280;61354;50.758;6.106;2023-03-11T05:46:49;98506.47;;;-1.56;100.00
73151;BME280;61354;50.758;6.106;2023-03-11T05:49:15;98506.69;;;-1.71;100.00
73151;BME280;61354;50.758;6.106;2023-03-11T05:51:41;98509.41;;;-1.71;100.00
73151;BME280;61354;50.758;6.106;2023-03-11T05:54:06;98503.88;;;-1.66;100.00
73151;BME280;61354;50.758;6.106;2023-03-11T05:56:43;98509.28;;;-1.61;100.00
73151;BME280;61354;50.758;6.106;2023-03-11T05:59:11;98518.81;;;-1.64;100.00
73151;BME280;61354;50.758;6.106;2023-03-11T06:01:36;98520.44;;;-1.63;100.00
73151;BME280;61354;50.758;6.106;2023-03-11T06:04:03;98524.28;;;-1.64;100.00
73151;BME280;61354;50.758;6.106;2023-03-11T06:06:29;98526.56;;;-1.52;100.00
73151;BME280;61354;50.758;6.106;2023-03-11T06:08:54;98529.94;;;-1.60;100.00
73151;BME280;61354;50.758;6.106;2023-03-11T06:11:20;98520.66;;;-1.59;100.00
73151;BME280;61354;50.758;6.106;2023-03-11T06:13:53;98525.22;;;-1.55;100.00
73151;BME280;61354;50.758;6.106;2023-03-11T06:16:20;98529.72;;;-1.64;100.00
73151;BME280;61354;50.758;6.106;2023-03-11T06:18:46;98532.00;;;-1.52;100.00
73151;BME280;61354;50.758;6.106;2023-03-11T06:21:16;98534.59;;;-1.61;100.00
73151;BME280;61354;50.758;6.106;2023-03-11T06:23:42;98536.19;;;-1.60;100.00
73151;BME280;61354;50.758;6.106;2023-03-11T06:26:09;98541.94;;;-1.61;100.00
73151;BME280;61354;50.758;6.106;2023-03-11T06:28:36;98548.03;;;-1.69;100.00
73151;BME280;61354;50.758;6.106;2023-03-11T06:31:07;98549.41;;;-1.72;100.00
73151;BME280;61354;50.758;6.106;2023-03-11T06:33:33;98557.81;;;-1.68;100.00
73151;BME280;61354;50.758;6.106;2023-03-11T06:36:00;98558.31;;;-1.66;100.00
73151;BME280;61354;50.758;6.106;2023-03-11T06:38:26;98562.94;;;-1.67;100.00
73151;BME280;61354;50.758;6.106;2023-03-11T06:40:52;98561.00;;;-1.61;100.00
73151;BME280;61354;50.758;6.106;2023-03-11T06:43:20;98573.97;;;-1.53;100.00
73151;BME280;61354;50.758;6.106;2023-03-11T06:45:45;98575.91;;;-1.59;100.00
73151;BME280;61354;50.758;6.106;2023-03-11T06:48:11;98578.94;;;-1.60;100.00
73151;BME280;61354;50.758;6.106;2023-03-11T06:50:37;98582.97;;;-1.58;100.00
73151;BME280;61354;50.758;6.106;2023-03-11T06:53:02;98584.88;;;-1.58;100.00
73151;BME280;61354;50.758;6.106;2023-03-11T06:55:31;98583.81;;;-1.57;100.00
73151;BME280;61354;50.758;6.106;2023-03-11T06:57:56;98591.38;;;-1.54;100.00
73151;BME280;61354;50.758;6.106;2023-03-11T07:00:22;98591.97;;;-1.57;100.00
73151;BME280;61354;50.758;6.106;2023-03-11T07:02:47;98600.56;;;-1.50;100.00
73151;BME280;61354;50.758;6.106;2023-03-11T07:05:13;98599.44;;;-1.44;100.00
73151;BME280;61354;50.758;6.106;2023-03-11T07:07:39;98611.22;;;-1.30;100.00
73151;BME280;61354;50.758;6.106;2023-03-11T07:10:05;98613.19;;;-1.16;100.00
73151;BME280;61354;50.758;6.106;2023-03-11T07:12:30;98618.00;;;-1.08;100.00
73151;BME280;61354;50.758;6.106;2023-03-11T07:14:57;98620.66;;;-1.03;100.00
73151;BME280;61354;50.758;6.106;2023-03-11T07:17:23;98621.38;;;-1.16;100.00
73151;BME280;61354;50.758;6.106;2023-03-11T07:19:49;98621.03;;;-1.10;100.00
73151;BME280;61354;50.758;6.106;2023-03-11T07:22:15;98626.91;;;-1.03;100.00
73151;BME280;61354;50.758;6.106;2023-03-11T07:24:44;98636.63;;;-0.96;100.00
73151;BME280;61354;50.758;6.106;2023-03-11T07:27:10;98636.41;;;-1.00;100.00
73151;BME280;61354;50.758;6.106;2023-03-11T07:29:36;98638.31;;;-1.01;100.00
73151;BME280;61354;50.758;6.106;2023-03-11T07:32:01;98639.88;;;-0.94;100.00
73151;BME280;61354;50.758;6.106;2023-03-11T07:34:27;98639.94;;;-0.81;100.00
73151;BME280;61354;50.758;6.106;2023-03-11T07:36:52;98654.69;;;-0.82;100.00
73151;BME280;61354;50.758;6.106;2023-03-11T07:39:18;98653.22;;;-0.74;100.00
73151;BME280;61354;50.758;6.106;2023-03-11T07:41:44;98653.44;;;-0.70;100.00
73151;BME280;61354;50.758;6.106;2023-03-11T07:44:11;98652.75;;;-0.62;100.00
73151;BME280;61354;50.758;6.106;2023-03-11T07:46:37;98654.38;;;-0.61;100.00
73151;BME280;61354;50.758;6.106;2023-03-11T07:49:03;98663.63;;;-0.43;100.00
73151;BME280;61354;50.758;6.106;2023-03-11T07:51:31;98662.25;;;-0.41;100.00
73151;BME280;61354;50.758;6.106;2023-03-11T07:53:58;98671.16;;;-0.35;100.00
73151;BME280;61354;50.758;6.106;2023-03-11T07:56:28;98670.34;;;-0.36;100.00
73151;BME280;61354;50.758;6.106;2023-03-11T07:58:54;98669.66;;;-0.28;100.00
73151;BME280;61354;50.758;6.106;2023-03-11T08:01:22;98671.06;;;-0.30;99.58
73151;BME280;61354;50.758;6.106;2023-03-11T08:03:49;98675.75;;;-0.17;99.69
73151;BME280;61354;50.758;6.106;2023-03-11T08:06:20;98663.44;;;-0.14;97.81
73151;BME280;61354;50.758;6.106;2023-03-11T08:08:47;98660.91;;;-0.11;95.80
73151;BME280;61354;50.758;6.106;2023-03-11T08:11:14;98660.44;;;0.01;98.76
73151;BME280;61354;50.758;6.106;2023-03-11T08:13:42;98668.53;;;0.06;97.84
73151;BME280;61354;50.758;6.106;2023-03-11T08:16:09;98659.06;;;0.17;98.78
73151;BME280;61354;50.758;6.106;2023-03-11T08:18:36;98662.88;;;0.16;97.32
73151;BME280;61354;50.758;6.106;2023-03-11T08:21:05;98666.44;;;0.17;95.25
73151;BME280;61354;50.758;6.106;2023-03-11T08:23:31;98670.47;;;0.19;94.21
73151;BME280;61354;50.758;6.106;2023-03-11T08:25:57;98668.75;;;0.23;91.59
73151;BME280;61354;50.758;6.106;2023-03-11T08:28:23;98665.53;;;0.35;89.24
73151;BME280;61354;50.758;6.106;2023-03-11T08:30:49;98667.38;;;0.40;87.97
73151;BME280;61354;50.758;6.106;2023-03-11T08:33:14;98667.38;;;0.40;86.95
73151;BME280;61354;50.758;6.106;2023-03-11T08:35:40;98659.88;;;0.32;84.21
73151;BME280;61354;50.758;6.106;2023-03-11T08:38:05;98670.72;;;0.51;86.35
73151;BME280;61354;50.758;6.106;2023-03-11T08:40:31;98670.81;;;0.59;86.56
73151;BME280;61354;50.758;6.106;2023-03-11T08:42:57;98670.28;;;0.57;84.18
73151;BME280;61354;50.758;6.106;2023-03-11T08:45:22;98674.66;;;0.58;83.79
73151;BME280;61354;50.758;6.106;2023-03-11T08:47:48;98679.19;;;0.49;86.07
73151;BME280;61354;50.758;6.106;2023-03-11T08:50:16;98674.84;;;0.62;84.66
73151;BME280;61354;50.758;6.106;2023-03-11T08:52:42;98677.09;;;0.60;83.88
73151;BME280;61354;50.758;6.106;2023-03-11T08:55:09;98679.22;;;0.77;85.24
73151;BME280;61354;50.758;6.106;2023-03-11T08:57:36;98676.88;;;0.84;84.38
73151;BME280;61354;50.758;6.106;2023-03-11T09:00:04;98675.25;;;0.96;88.23
73151;BME280;61354;50.758;6.106;2023-03-11T09:02:29;98688.00;;;1.01;80.16
73151;BME280;61354;50.758;6.106;2023-03-11T09:04:55;98678.19;;;1.00;84.49
73151;BME280;61354;50.758;6.106;2023-03-11T09:07:21;98672.88;;;1.04;72.41
73151;BME280;61354;50.758;6.106;2023-03-11T09:09:47;98676.81;;;1.11;70.87
73151;BME280;61354;50.758;6.106;2023-03-11T09:12:12;98670.53;;;1.11;63.93
73151;BME280;61354;50.758;6.106;2023-03-11T09:14:40;98688.16;;;1.18;65.24
73151;BME280;61354;50.758;6.106;2023-03-11T09:17:06;98680.75;;;1.19;65.81
73151;BME280;61354;50.758;6.106;2023-03-11T09:19:32;98690.56;;;1.20;66.58
73151;BME280;61354;50.758;6.106;2023-03-11T09:22:01;98681.91;;;1.40;70.90
73151;BME280;61354;50.758;6.106;2023-03-11T09:24:28;98692.66;;;1.37;68.75
73151;BME280;61354;50.758;6.106;2023-03-11T09:26:54;98696.41;;;1.41;67.74
73151;BME280;61354;50.758;6.106;2023-03-11T09:29:19;98704.72;;;1.36;70.09
73151;BME280;61354;50.758;6.106;2023-03-11T09:31:45;98712.19;;;1.44;67.82
73151;BME280;61354;50.758;6.106;2023-03-11T09:34:11;98710.59;;;1.43;64.27
73151;BME280;61354;50.758;6.106;2023-03-11T09:36:40;98715.09;;;1.61;69.21
73151;BME280;61354;50.758;6.106;2023-03-11T09:39:06;98713.06;;;1.67;67.19
73151;BME280;61354;50.758;6.106;2023-03-11T09:41:53;98714.00;;;1.62;67.31
73151;BME280;61354;50.758;6.106;2023-03-11T09:44:27;98710.25;;;1.58;66.36
73151;BME280;61354;50.758;6.106;2023-03-11T09:55:55;98731.53;;;1.84;60.84
73151;BME280;61354;50.758;6.106;2023-03-11T09:58:37;98736.09;;;1.88;60.72
73151;BME280;61354;50.758;6.106;2023-03-11T10:01:15;98737.75;;;1.98;58.30
73151;BME280;61354;50.758;6.106;2023-03-11T10:03:43;98744.38;;;1.97;58.29
73151;BME280;61354;50.758;6.106;2023-03-11T10:06:29;98738.00;;;2.10;58.35
73151;BME280;61354;50.758;6.106;2023-03-11T10:14:26;98727.75;;;2.16;57.38
73151;BME280;61354;50.758;6.106;2023-03-11T10:17:07;98733.41;;;1.97;55.72
73151;BME280;61354;50.758;6.106;2023-03-11T10:22:17;98733.66;;;2.09;58.61
73151;BME280;61354;50.758;6.106;2023-03-11T10:24:59;98738.06;;;2.19;58.16
73151;BME280;61354;50.758;6.106;2023-03-11T10:27:39;98738.53;;;2.12;59.31
73151;BME280;61354;50.758;6.106;2023-03-11T10:33:04;98738.06;;;2.19;58.37
73151;BME280;61354;50.758;6.106;2023-03-11T10:35:43;98748.31;;;2.36;65.70
73151;BME280;61354;50.758;6.106;2023-03-11T10:40:43;98734.81;;;2.70;69.89
73151;BME280;61354;50.758;6.106;2023-03-11T10:43:13;98734.44;;;2.63;61.91
73151;BME280;61354;50.758;6.106;2023-03-11T10:45:42;98740.84;;;2.90;67.76
73151;BME280;61354;50.758;6.106;2023-03-11T10:48:11;98729.41;;;2.96;66.48
73151;BME280;61354;50.758;6.106;2023-03-11T10:50:45;98740.63;;;3.17;66.13
73151;BME280;61354;50.758;6.106;2023-03-11T10:53:17;98745.06;;;2.96;61.50
73151;BME280;61354;50.758;6.106;2023-03-11T10:55:51;98737.53;;;3.10;62.26
73151;BME280;61354;50.758;6.106;2023-03-11T10:58:23;98729.88;;;2.90;57.87
73151;BME280;61354;50.758;6.106;2023-03-11T11:01:15;98727.91;;;2.82;60.59
73151;BME280;61354;50.758;6.106;2023-03-11T11:03:46;98730.88;;;3.03;62.89
73151;BME280;61354;50.758;6.106;2023-03-11T11:06:35;98728.53;;;3.36;65.11
73151;BME280;61354;50.758;6.106;2023-03-11T11:11:31;98743.16;;;3.05;59.23
73151;BME280;61354;50.758;6.106;2023-03-11T11:13:59;98753.31;;;3.05;60.83
73151;BME280;61354;50.758;6.106;2023-03-11T11:16:26;98750.38;;;2.92;59.56
73151;BME280;61354;50.758;6.106;2023-03-11T11:19:02;98755.63;;;2.71;59.69
73151;BME280;61354;50.758;6.106;2023-03-11T11:21:38;98766.63;;;2.80;58.53
73151;BME280;61354;50.758;6.106;2023-03-11T11:24:27;98764.88;;;2.84;60.80
73151;BME280;61354;50.758;6.106;2023-03-11T11:27:15;98763.19;;;2.66;61.60
73151;BME280;61354;50.758;6.106;2023-03-11T11:29:42;98750.81;;;2.46;59.71
73151;BME280;61354;50.758;6.106;2023-03-11T11:34:40;98740.47;;;2.43;60.13
73151;BME280;61354;50.758;6.106;2023-03-11T11:37:10;98749.00;;;2.72;63.70
73151;BME280;61354;50.758;6.106;2023-03-11T11:39:46;98743.72;;;2.85;63.01
73151;BME280;61354;50.758;6.106;2023-03-11T11:42:17;98750.19;;;2.89;61.42
73151;BME280;61354;50.758;6.106;2023-03-11T11:44:45;98756.03;;;2.96;59.43
73151;BME280;61354;50.758;6.106;2023-03-11T11:47:16;98758.13;;;2.90;60.73
73151;BME280;61354;50.758;6.106;2023-03-11T11:49:49;98748.75;;;2.83;59.75
73151;BME280;61354;50.758;6.106;2023-03-11T11:52:20;98750.50;;;2.79;61.22
73151;BME280;61354;50.758;6.106;2023-03-11T11:54:52;98762.09;;;2.76;58.71
73151;BME280;61354;50.758;6.106;2023-03-11T11:57:20;98751.03;;;2.98;62.20
73151;BME280;61354;50.758;6.106;2023-03-11T11:59:46;98753.16;;;3.01;60.91
73151;BME280;61354;50.758;6.106;2023-03-11T12:18:29;98736.50;;;3.63;60.11
73151;BME280;61354;50.758;6.106;2023-03-11T12:21:11;98745.69;;;3.50;56.29
73151;BME280;61354;50.758;6.106;2023-03-11T12:26:34;98726.19;;;3.78;58.12
73151;BME280;61354;50.758;6.106;2023-03-11T12:31:32;98726.91;;;3.17;55.03
73151;BME280;61354;50.758;6.106;2023-03-11T12:34:05;98728.84;;;3.26;54.37
73151;BME280;61354;50.758;6.106;2023-03-11T12:36:37;98718.41;;;3.45;56.77
73151;BME280;61354;50.758;6.106;2023-03-11T12:39:06;98723.72;;;3.41;53.88
73151;BME280;61354;50.758;6.106;2023-03-11T12:41:37;98723.06;;;3.36;56.62
73151;BME280;61354;50.758;6.106;2023-03-11T12:44:20;98715.66;;;3.54;56.29
73151;BME280;61354;50.758;6.106;2023-03-11T12:54:35;98716.78;;;3.96;60.17
73151;BME280;61354;50.758;6.106;2023-03-11T13:05:22;98705.09;;;4.25;61.39
73151;BME280;61354;50.758;6.106;2023-03-11T13:07:54;98706.28;;;3.98;55.78
73151;BME280;61354;50.758;6.106;2023-03-11T13:10:40;98716.28;;;3.85;54.74
73151;BME280;61354;50.758;6.106;2023-03-11T13:13:34;98717.59;;;4.05;56.82
73151;BME280;61354;50.758;6.106;2023-03-11T13:18:39;98708.69;;;4.08;58.95
73151;BME280;61354;50.758;6.106;2023-03-11T13:43:00;98699.81;;;3.85;57.59
73151;BME280;61354;50.758;6.106;2023-03-11T13:45:28;98706.28;;;3.98;56.12
73151;BME280;61354;50.758;6.106;2023-03-11T13:48:17;98697.38;;;4.01;59.22
73151;BME280;61354;50.758;6.106;2023-03-11T13:50:48;98688.47;;;4.21;58.18
73151;BME280;61354;50.758;6.106;2023-03-11T13:53:22;98694.75;;;4.31;55.48
73151;BME280;61354;50.758;6.106;2023-03-11T13:55:50;98688.13;;;4.32;57.17
73151;BME280;61354;50.758;6.106;2023-03-11T13:58:21;98690.59;;;4.07;54.82
73151;BME280;61354;50.758;6.106;2023-03-11T14:00:55;98706.78;;;3.83;54.48
73151;BME280;61354;50.758;6.106;2023-03-11T14:03:23;98695.44;;;4.02;56.46
73151;BME280;61354;50.758;6.106;2023-03-11T14:06:04;98699.00;;;4.02;55.64
73151;BME280;61354;50.758;6.106;2023-03-11T14:08:33;98694.13;;;4.16;55.51
73151;BME280;61354;50.758;6.106;2023-03-11T14:11:01;98701.53;;;4.33;55.35
73151;BME280;61354;50.758;6.106;2023-03-11T14:16:12;98714.47;;;4.33;54.73
73151;BME280;61354;50.758;6.106;2023-03-11T14:18:43;98708.34;;;4.18;54.52
73151;BME280;61354;50.758;6.106;2023-03-11T14:21:13;98708.44;;;4.57;57.35
73151;BME280;61354;50.758;6.106;2023-03-11T14:23:43;98717.53;;;4.31;54.10
73151;BME280;61354;50.758;6.106;2023-03-11T14:26:29;98710.94;;;4.23;54.16
73151;BME280;61354;50.758;6.106;2023-03-11T14:28:58;98706.72;;;4.26;55.30
73151;BME280;61354;50.758;6.106;2023-03-11T14:34:13;98702.19;;;4.21;56.01
73151;BME280;61354;50.758;6.106;2023-03-11T14:36:51;98709.16;;;4.28;53.89
73151;BME280;61354;50.758;6.106;2023-03-11T14:39:32;98715.69;;;4.61;56.79
73151;BME280;61354;50.758;6.106;2023-03-11T14:44:32;98716.72;;;4.86;55.58
73151;BME280;61354;50.758;6.106;2023-03-11T14:47:09;98711.91;;;4.74;53.57
73151;BME280;61354;50.758;6.106;2023-03-11T14:49:36;98719.13;;;4.88;54.32